sensor_id;sensor_type;location;lat;lon;timestamp;P1;durP1;ratioP1;P2;durP2;ratioP2
55290;SDS011;41155;39.768;2.712;2023-02-01T00:01:17;59.80;;;42.83;;
55290;SDS011;41155;39.768;2.712;2023-02-01T00:03:43;79.90;;;49.08;;
55290;SDS011;41155;39.768;2.712;2023-02-01T00:06:08;67.93;;;43.97;;
55290;SDS011;41155;39.768;2.712;2023-02-01T00:08:34;72.78;;;50.58;;
55290;SDS011;41155;39.768;2.712;2023-02-01T00:13:27;65.53;;;43.45;;
55290;SDS011;41155;39.768;2.712;2023-02-01T00:16:06;64.00;;;44.17;;
55290;SDS011;41155;39.768;2.712;2023-02-01T00:18:33;75.47;;;46.33;;
55290;SDS011;41155;39.768;2.712;2023-02-01T00:20:59;98.78;;;63.10;;
55290;SDS011;41155;39.768;2.712;2023-02-01T00:23:25;72.00;;;48.88;;
55290;SDS011;41155;39.768;2.712;2023-02-01T00:25:51;73.47;;;54.45;;
55290;SDS011;41155;39.768;2.712;2023-02-01T00:28:17;63.78;;;50.33;;
55290;SDS011;41155;39.768;2.712;2023-02-01T00:30:42;72.30;;;49.20;;
55290;SDS011;41155;39.768;2.712;2023-02-01T00:33:07;60.05;;;43.63;;
55290;SDS011;41155;39.768;2.712;2023-02-01T00:35:33;59.20;;;46.45;;
55290;SDS011;41155;39.768;2.712;2023-02-01T00:38:00;62.45;;;42.05;;
55290;SDS011;41155;39.768;2.712;2023-02-01T00:40:26;52.63;;;39.38;;
55290;SDS011;41155;39.768;2.712;2023-02-01T00:42:51;70.53;;;44.63;;
55290;SDS011;41155;39.768;2.712;2023-02-01T00:45:17;67.30;;;40.95;;
55290;SDS011;41155;39.768;2.712;2023-02-01T00:47:43;57.42;;;42.13;;
55290;SDS011;41155;39.768;2.712;2023-02-01T00:50:08;66.00;;;50.40;;
55290;SDS011;41155;39.768;2.712;2023-02-01T00:52:34;44.85;;;37.35;;
55290;SDS011;41155;39.768;2.712;2023-02-01T00:55:00;62.58;;;45.80;;
55290;SDS011;41155;39.768;2.712;2023-02-01T00:57:25;69.05;;;46.05;;
55290;SDS011;41155;39.768;2.712;2023-02-01T00:59:51;52.42;;;42.65;;
55290;SDS011;41155;39.768;2.712;2023-02-01T01:02:16;49.75;;;36.55;;
55290;SDS011;41155;39.768;2.712;2023-02-01T01:04:42;34.05;;;27.95;;
55290;SDS011;41155;39.768;2.712;2023-02-01T01:07:07;32.42;;;27.67;;
55290;SDS011;41155;39.768;2.712;2023-02-01T01:09:33;44.55;;;33.58;;
55290;SDS011;41155;39.768;2.712;2023-02-01T01:11:59;67.82;;;48.78;;
55290;SDS011;41155;39.768;2.712;2023-02-01T01:14:28;44.28;;;34.15;;
55290;SDS011;41155;39.768;2.712;2023-02-01T01:16:54;56.78;;;37.78;;
55290;SDS011;41155;39.768;2.712;2023-02-01T01:19:20;53.35;;;33.70;;
55290;SDS011;41155;39.768;2.712;2023-02-01T01:21:45;62.53;;;36.05;;
55290;SDS011;41155;39.768;2.712;2023-02-01T01:24:11;62.55;;;38.22;;
55290;SDS011;41155;39.768;2.712;2023-02-01T01:26:36;77.43;;;41.00;;
55290;SDS011;41155;39.768;2.712;2023-02-01T01:29:02;51.75;;;40.05;;
55290;SDS011;41155;39.768;2.712;2023-02-01T01:31:28;67.40;;;42.78;;
55290;SDS011;41155;39.768;2.712;2023-02-01T01:33:55;70.03;;;43.97;;
55290;SDS011;41155;39.768;2.712;2023-02-01T01:36:23;59.50;;;43.78;;
55290;SDS011;41155;39.768;2.712;2023-02-01T01:38:52;65.47;;;44.60;;
55290;SDS011;41155;39.768;2.712;2023-02-01T01:41:18;60.90;;;45.42;;
55290;SDS011;41155;39.768;2.712;2023-02-01T01:43:59;62.47;;;43.25;;
55290;SDS011;41155;39.768;2.712;2023-02-01T01:46:28;57.72;;;44.90;;
55290;SDS011;41155;39.768;2.712;2023-02-01T01:51:27;60.58;;;44.95;;
55290;SDS011;41155;39.768;2.712;2023-02-01T01:53:58;71.82;;;50.00;;
55290;SDS011;41155;39.768;2.712;2023-02-01T01:56:27;86.18;;;59.60;;
55290;SDS011;41155;39.768;2.712;2023-02-01T01:58:57;83.80;;;57.15;;
55290;SDS011;41155;39.768;2.712;2023-02-01T02:01:23;54.85;;;40.83;;
55290;SDS011;41155;39.768;2.712;2023-02-01T02:03:49;62.83;;;42.47;;
55290;SDS011;41155;39.768;2.712;2023-02-01T02:06:50;55.42;;;42.30;;
55290;SDS011;41155;39.768;2.712;2023-02-01T02:09:13;48.03;;;37.58;;
55290;SDS011;41155;39.768;2.712;2023-02-01T02:11:39;62.10;;;43.88;;
55290;SDS011;41155;39.768;2.712;2023-02-01T02:14:05;43.65;;;32.13;;
55290;SDS011;41155;39.768;2.712;2023-02-01T02:19:32;51.75;;;40.30;;
55290;SDS011;41155;39.768;2.712;2023-02-01T02:30:23;47.78;;;36.95;;
55290;SDS011;41155;39.768;2.712;2023-02-01T02:35:30;51.83;;;44.33;;
55290;SDS011;41155;39.768;2.712;2023-02-01T02:44:13;52.75;;;36.35;;
55290;SDS011;41155;39.768;2.712;2023-02-01T02:47:21;51.88;;;40.05;;
55290;SDS011;41155;39.768;2.712;2023-02-01T02:49:58;50.17;;;34.22;;
55290;SDS011;41155;39.768;2.712;2023-02-01T02:52:55;44.53;;;36.70;;
55290;SDS011;41155;39.768;2.712;2023-02-01T02:55:45;49.67;;;38.60;;
55290;SDS011;41155;39.768;2.712;2023-02-01T02:58:11;48.67;;;38.03;;
55290;SDS011;41155;39.768;2.712;2023-02-01T03:00:57;45.60;;;34.47;;
55290;SDS011;41155;39.768;2.712;2023-02-01T03:03:41;53.63;;;39.17;;
55290;SDS011;41155;39.768;2.712;2023-02-01T03:06:33;48.03;;;38.25;;
55290;SDS011;41155;39.768;2.712;2023-02-01T03:08:59;53.05;;;36.50;;
55290;SDS011;41155;39.768;2.712;2023-02-01T03:11:29;50.83;;;40.50;;
55290;SDS011;41155;39.768;2.712;2023-02-01T03:14:17;53.55;;;38.33;;
55290;SDS011;41155;39.768;2.712;2023-02-01T03:16:48;44.75;;;36.20;;
55290;SDS011;41155;39.768;2.712;2023-02-01T03:19:27;43.13;;;33.75;;
55290;SDS011;41155;39.768;2.712;2023-02-01T03:21:57;41.33;;;32.28;;
55290;SDS011;41155;39.768;2.712;2023-02-01T03:27:14;36.92;;;28.40;;
55290;SDS011;41155;39.768;2.712;2023-02-01T03:29:47;44.72;;;32.80;;
55290;SDS011;41155;39.768;2.712;2023-02-01T03:32:19;42.72;;;32.42;;
55290;SDS011;41155;39.768;2.712;2023-02-01T03:34:45;34.42;;;29.55;;
55290;SDS011;41155;39.768;2.712;2023-02-01T03:37:13;44.55;;;30.60;;
55290;SDS011;41155;39.768;2.712;2023-02-01T03:39:48;45.33;;;33.40;;
55290;SDS011;41155;39.768;2.712;2023-02-01T03:42:24;34.50;;;27.15;;
55290;SDS011;41155;39.768;2.712;2023-02-01T03:47:41;27.55;;;24.08;;
55290;SDS011;41155;39.768;2.712;2023-02-01T03:50:11;32.15;;;24.58;;
55290;SDS011;41155;39.768;2.712;2023-02-01T03:55:20;31.00;;;25.30;;
55290;SDS011;41155;39.768;2.712;2023-02-01T03:58:29;24.92;;;22.25;;
55290;SDS011;41155;39.768;2.712;2023-02-01T04:00:56;27.60;;;24.00;;
55290;SDS011;41155;39.768;2.712;2023-02-01T04:03:23;27.85;;;24.48;;
55290;SDS011;41155;39.768;2.712;2023-02-01T04:05:50;31.15;;;24.92;;
55290;SDS011;41155;39.768;2.712;2023-02-01T04:08:17;28.92;;;24.73;;
55290;SDS011;41155;39.768;2.712;2023-02-01T04:10:44;25.30;;;22.33;;
55290;SDS011;41155;39.768;2.712;2023-02-01T04:13:09;31.08;;;23.20;;
55290;SDS011;41155;39.768;2.712;2023-02-01T04:15:35;28.33;;;24.42;;
55290;SDS011;41155;39.768;2.712;2023-02-01T04:18:01;32.38;;;25.77;;
55290;SDS011;41155;39.768;2.712;2023-02-01T04:20:26;43.03;;;31.23;;
55290;SDS011;41155;39.768;2.712;2023-02-01T04:22:52;39.03;;;26.65;;
55290;SDS011;41155;39.768;2.712;2023-02-01T04:25:18;47.80;;;28.05;;
55290;SDS011;41155;39.768;2.712;2023-02-01T04:27:43;35.28;;;28.35;;
55290;SDS011;41155;39.768;2.712;2023-02-01T04:30:10;31.23;;;24.73;;
55290;SDS011;41155;39.768;2.712;2023-02-01T04:32:37;27.50;;;23.60;;
55290;SDS011;41155;39.768;2.712;2023-02-01T04:35:03;26.73;;;22.00;;
55290;SDS011;41155;39.768;2.712;2023-02-01T04:37:28;30.85;;;25.05;;
55290;SDS011;41155;39.768;2.712;2023-02-01T04:39:54;28.02;;;23.65;;
55290;SDS011;41155;39.768;2.712;2023-02-01T04:42:19;26.75;;;22.75;;
55290;SDS011;41155;39.768;2.712;2023-02-01T04:44:45;32.03;;;25.83;;
55290;SDS011;41155;39.768;2.712;2023-02-01T04:47:11;36.60;;;30.63;;
55290;SDS011;41155;39.768;2.712;2023-02-01T04:49:36;34.63;;;29.23;;
55290;SDS011;41155;39.768;2.712;2023-02-01T04:52:01;38.05;;;29.48;;
55290;SDS011;41155;39.768;2.712;2023-02-01T04:54:27;37.33;;;28.20;;
55290;SDS011;41155;39.768;2.712;2023-02-01T04:56:53;35.38;;;28.45;;
55290;SDS011;41155;39.768;2.712;2023-02-01T04:59:18;32.45;;;28.48;;
55290;SDS011;41155;39.768;2.712;2023-02-01T05:01:43;32.85;;;29.33;;
55290;SDS011;41155;39.768;2.712;2023-02-01T05:04:09;38.17;;;29.60;;
55290;SDS011;41155;39.768;2.712;2023-02-01T05:06:34;39.38;;;31.30;;
55290;SDS011;41155;39.768;2.712;2023-02-01T05:09:00;48.65;;;35.15;;
55290;SDS011;41155;39.768;2.712;2023-02-01T05:11:25;39.38;;;31.70;;
55290;SDS011;41155;39.768;2.712;2023-02-01T05:16:35;39.10;;;31.90;;
55290;SDS011;41155;39.768;2.712;2023-02-01T05:19:00;39.78;;;32.38;;
55290;SDS011;41155;39.768;2.712;2023-02-01T05:21:26;35.00;;;30.23;;
55290;SDS011;41155;39.768;2.712;2023-02-01T05:23:51;33.60;;;30.10;;
55290;SDS011;41155;39.768;2.712;2023-02-01T05:26:35;34.50;;;28.77;;
55290;SDS011;41155;39.768;2.712;2023-02-01T05:29:02;34.75;;;29.48;;
55290;SDS011;41155;39.768;2.712;2023-02-01T05:31:27;41.03;;;29.48;;
55290;SDS011;41155;39.768;2.712;2023-02-01T05:33:53;30.10;;;26.95;;
55290;SDS011;41155;39.768;2.712;2023-02-01T05:36:18;28.70;;;24.00;;
55290;SDS011;41155;39.768;2.712;2023-02-01T05:38:44;35.00;;;25.80;;
55290;SDS011;41155;39.768;2.712;2023-02-01T05:41:09;36.20;;;27.60;;
55290;SDS011;41155;39.768;2.712;2023-02-01T05:43:35;29.70;;;26.70;;
55290;SDS011;41155;39.768;2.712;2023-02-01T05:46:00;42.70;;;30.55;;
55290;SDS011;41155;39.768;2.712;2023-02-01T05:48:26;41.20;;;34.22;;
55290;SDS011;41155;39.768;2.712;2023-02-01T05:50:52;38.17;;;29.13;;
55290;SDS011;41155;39.768;2.712;2023-02-01T05:53:18;33.85;;;27.67;;
55290;SDS011;41155;39.768;2.712;2023-02-01T05:55:43;38.15;;;30.45;;
55290;SDS011;41155;39.768;2.712;2023-02-01T05:58:09;37.58;;;32.00;;
55290;SDS011;41155;39.768;2.712;2023-02-01T06:00:34;41.03;;;31.38;;
55290;SDS011;41155;39.768;2.712;2023-02-01T06:03:00;34.65;;;28.63;;
55290;SDS011;41155;39.768;2.712;2023-02-01T06:05:26;41.58;;;25.05;;
55290;SDS011;41155;39.768;2.712;2023-02-01T06:07:52;26.55;;;23.73;;
55290;SDS011;41155;39.768;2.712;2023-02-01T06:10:18;31.55;;;28.10;;
55290;SDS011;41155;39.768;2.712;2023-02-01T06:12:43;37.17;;;31.02;;
55290;SDS011;41155;39.768;2.712;2023-02-01T06:15:11;40.47;;;34.72;;
55290;SDS011;41155;39.768;2.712;2023-02-01T06:17:37;86.90;;;33.47;;
55290;SDS011;41155;39.768;2.712;2023-02-01T06:20:04;43.92;;;29.95;;
55290;SDS011;41155;39.768;2.712;2023-02-01T06:22:31;66.15;;;40.55;;
55290;SDS011;41155;39.768;2.712;2023-02-01T06:24:57;43.00;;;32.42;;
55290;SDS011;41155;39.768;2.712;2023-02-01T06:27:24;38.00;;;33.42;;
55290;SDS011;41155;39.768;2.712;2023-02-01T06:29:50;45.28;;;31.50;;
55290;SDS011;41155;39.768;2.712;2023-02-01T06:32:15;68.20;;;59.20;;
55290;SDS011;41155;39.768;2.712;2023-02-01T06:34:42;61.45;;;42.88;;
55290;SDS011;41155;39.768;2.712;2023-02-01T06:37:08;61.40;;;37.38;;
55290;SDS011;41155;39.768;2.712;2023-02-01T06:39:33;58.92;;;44.03;;
55290;SDS011;41155;39.768;2.712;2023-02-01T06:41:59;38.30;;;32.75;;
55290;SDS011;41155;39.768;2.712;2023-02-01T06:44:24;54.95;;;38.35;;
55290;SDS011;41155;39.768;2.712;2023-02-01T06:46:50;39.67;;;31.20;;
55290;SDS011;41155;39.768;2.712;2023-02-01T06:49:15;50.28;;;32.15;;
55290;SDS011;41155;39.768;2.712;2023-02-01T06:51:44;41.95;;;33.05;;
55290;SDS011;41155;39.768;2.712;2023-02-01T06:54:09;56.38;;;42.35;;
55290;SDS011;41155;39.768;2.712;2023-02-01T06:56:34;40.55;;;29.25;;
55290;SDS011;41155;39.768;2.712;2023-02-01T06:59:03;34.00;;;28.05;;
55290;SDS011;41155;39.768;2.712;2023-02-01T07:01:29;35.28;;;29.50;;
55290;SDS011;41155;39.768;2.712;2023-02-01T07:03:57;33.15;;;25.98;;
55290;SDS011;41155;39.768;2.712;2023-02-01T07:06:22;29.48;;;24.98;;
55290;SDS011;41155;39.768;2.712;2023-02-01T07:08:48;44.53;;;28.63;;
55290;SDS011;41155;39.768;2.712;2023-02-01T07:11:14;48.75;;;35.60;;
55290;SDS011;41155;39.768;2.712;2023-02-01T07:13:41;53.03;;;38.25;;
55290;SDS011;41155;39.768;2.712;2023-02-01T07:16:08;71.88;;;55.53;;
55290;SDS011;41155;39.768;2.712;2023-02-01T07:18:35;98.07;;;68.20;;
55290;SDS011;41155;39.768;2.712;2023-02-01T07:21:01;82.32;;;70.15;;
55290;SDS011;41155;39.768;2.712;2023-02-01T07:23:26;69.28;;;57.60;;
55290;SDS011;41155;39.768;2.712;2023-02-01T07:25:56;66.57;;;42.33;;
55290;SDS011;41155;39.768;2.712;2023-02-01T07:28:23;84.32;;;36.03;;
55290;SDS011;41155;39.768;2.712;2023-02-01T07:30:49;72.47;;;35.08;;
55290;SDS011;41155;39.768;2.712;2023-02-01T07:33:22;86.00;;;38.20;;
55290;SDS011;41155;39.768;2.712;2023-02-01T07:35:49;117.50;;;59.42;;
55290;SDS011;41155;39.768;2.712;2023-02-01T07:38:15;200.40;;;127.00;;
55290;SDS011;41155;39.768;2.712;2023-02-01T07:40:41;166.23;;;112.07;;
55290;SDS011;41155;39.768;2.712;2023-02-01T07:43:07;292.05;;;181.98;;
55290;SDS011;41155;39.768;2.712;2023-02-01T07:45:33;207.02;;;137.85;;
55290;SDS011;41155;39.768;2.712;2023-02-01T07:47:59;156.25;;;100.22;;
55290;SDS011;41155;39.768;2.712;2023-02-01T07:50:25;190.80;;;135.68;;
55290;SDS011;41155;39.768;2.712;2023-02-01T07:52:51;107.70;;;49.35;;
55290;SDS011;41155;39.768;2.712;2023-02-01T07:55:18;115.22;;;58.85;;
55290;SDS011;41155;39.768;2.712;2023-02-01T07:57:44;136.77;;;89.07;;
55290;SDS011;41155;39.768;2.712;2023-02-01T08:00:09;134.77;;;81.38;;
55290;SDS011;41155;39.768;2.712;2023-02-01T08:02:57;116.07;;;68.05;;
55290;SDS011;41155;39.768;2.712;2023-02-01T08:05:23;91.05;;;61.72;;
55290;SDS011;41155;39.768;2.712;2023-02-01T08:07:49;93.00;;;58.10;;
55290;SDS011;41155;39.768;2.712;2023-02-01T08:10:15;117.63;;;67.43;;
55290;SDS011;41155;39.768;2.712;2023-02-01T08:12:41;97.50;;;61.03;;
55290;SDS011;41155;39.768;2.712;2023-02-01T08:15:06;95.93;;;55.30;;
55290;SDS011;41155;39.768;2.712;2023-02-01T08:17:32;115.53;;;62.92;;
55290;SDS011;41155;39.768;2.712;2023-02-01T08:19:58;132.65;;;63.13;;
55290;SDS011;41155;39.768;2.712;2023-02-01T08:22:24;131.35;;;63.17;;
55290;SDS011;41155;39.768;2.712;2023-02-01T08:24:49;124.05;;;65.38;;
55290;SDS011;41155;39.768;2.712;2023-02-01T08:27:15;192.38;;;70.95;;
55290;SDS011;41155;39.768;2.712;2023-02-01T08:29:41;145.77;;;63.47;;
55290;SDS011;41155;39.768;2.712;2023-02-01T08:32:09;99.60;;;58.70;;
55290;SDS011;41155;39.768;2.712;2023-02-01T08:34:34;96.65;;;56.45;;
55290;SDS011;41155;39.768;2.712;2023-02-01T08:37:00;96.82;;;62.58;;
55290;SDS011;41155;39.768;2.712;2023-02-01T08:39:25;103.65;;;69.47;;
55290;SDS011;41155;39.768;2.712;2023-02-01T08:41:51;115.25;;;62.08;;
55290;SDS011;41155;39.768;2.712;2023-02-01T08:47:01;109.15;;;64.75;;
55290;SDS011;41155;39.768;2.712;2023-02-01T08:49:28;155.35;;;90.07;;
55290;SDS011;41155;39.768;2.712;2023-02-01T08:51:54;146.63;;;84.20;;
55290;SDS011;41155;39.768;2.712;2023-02-01T08:54:20;141.73;;;80.15;;
55290;SDS011;41155;39.768;2.712;2023-02-01T08:56:46;141.25;;;79.75;;
55290;SDS011;41155;39.768;2.712;2023-02-01T08:59:11;125.53;;;73.05;;
55290;SDS011;41155;39.768;2.712;2023-02-01T09:01:37;136.45;;;74.35;;
55290;SDS011;41155;39.768;2.712;2023-02-01T09:04:02;117.05;;;72.43;;
55290;SDS011;41155;39.768;2.712;2023-02-01T09:06:28;104.72;;;69.65;;
55290;SDS011;41155;39.768;2.712;2023-02-01T09:08:53;106.45;;;62.28;;
55290;SDS011;41155;39.768;2.712;2023-02-01T09:11:19;85.75;;;57.38;;
55290;SDS011;41155;39.768;2.712;2023-02-01T09:13:44;90.72;;;52.50;;
55290;SDS011;41155;39.768;2.712;2023-02-01T09:16:11;72.07;;;49.70;;
55290;SDS011;41155;39.768;2.712;2023-02-01T09:18:37;87.28;;;50.75;;
55290;SDS011;41155;39.768;2.712;2023-02-01T09:21:08;81.38;;;52.92;;
55290;SDS011;41155;39.768;2.712;2023-02-01T09:23:34;102.55;;;52.72;;
55290;SDS011;41155;39.768;2.712;2023-02-01T09:26:00;91.28;;;56.38;;
55290;SDS011;41155;39.768;2.712;2023-02-01T09:28:26;113.65;;;66.85;;
55290;SDS011;41155;39.768;2.712;2023-02-01T09:30:58;107.53;;;72.35;;
55290;SDS011;41155;39.768;2.712;2023-02-01T09:33:25;95.60;;;67.30;;
55290;SDS011;41155;39.768;2.712;2023-02-01T09:35:56;93.30;;;62.78;;
55290;SDS011;41155;39.768;2.712;2023-02-01T09:38:22;124.35;;;73.25;;
55290;SDS011;41155;39.768;2.712;2023-02-01T09:40:48;75.85;;;57.85;;
55290;SDS011;41155;39.768;2.712;2023-02-01T09:43:17;80.13;;;54.78;;
55290;SDS011;41155;39.768;2.712;2023-02-01T09:46:21;84.47;;;60.75;;
55290;SDS011;41155;39.768;2.712;2023-02-01T09:48:51;113.25;;;77.00;;
55290;SDS011;41155;39.768;2.712;2023-02-01T09:51:20;196.80;;;146.13;;
55290;SDS011;41155;39.768;2.712;2023-02-01T09:54:35;220.18;;;176.60;;
55290;SDS011;41155;39.768;2.712;2023-02-01T09:57:11;122.55;;;92.68;;
55290;SDS011;41155;39.768;2.712;2023-02-01T09:59:46;143.38;;;93.13;;
55290;SDS011;41155;39.768;2.712;2023-02-01T10:02:16;71.13;;;55.83;;
55290;SDS011;41155;39.768;2.712;2023-02-01T10:04:47;64.25;;;46.40;;
55290;SDS011;41155;39.768;2.712;2023-02-01T10:26:33;60.38;;;32.63;;
55290;SDS011;41155;39.768;2.712;2023-02-01T10:29:11;71.15;;;42.72;;
55290;SDS011;41155;39.768;2.712;2023-02-01T10:31:41;113.75;;;75.25;;
55290;SDS011;41155;39.768;2.712;2023-02-01T10:34:19;46.72;;;26.63;;
55290;SDS011;41155;39.768;2.712;2023-02-01T10:37:00;12.95;;;10.75;;
55290;SDS011;41155;39.768;2.712;2023-02-01T10:39:27;46.88;;;32.53;;
55290;SDS011;41155;39.768;2.712;2023-02-01T10:41:52;44.88;;;30.23;;
55290;SDS011;41155;39.768;2.712;2023-02-01T10:44:25;28.60;;;19.15;;
55290;SDS011;41155;39.768;2.712;2023-02-01T10:46:52;17.83;;;11.95;;
55290;SDS011;41155;39.768;2.712;2023-02-01T10:49:20;11.32;;;8.63;;
55290;SDS011;41155;39.768;2.712;2023-02-01T10:51:55;14.77;;;8.23;;
55290;SDS011;41155;39.768;2.712;2023-02-01T10:54:34;12.95;;;7.90;;
55290;SDS011;41155;39.768;2.712;2023-02-01T10:57:03;19.27;;;11.68;;
55290;SDS011;41155;39.768;2.712;2023-02-01T10:59:33;20.65;;;13.27;;
55290;SDS011;41155;39.768;2.712;2023-02-01T11:02:02;18.02;;;15.10;;
55290;SDS011;41155;39.768;2.712;2023-02-01T11:04:40;18.33;;;12.85;;
55290;SDS011;41155;39.768;2.712;2023-02-01T11:09:40;12.90;;;9.73;;
55290;SDS011;41155;39.768;2.712;2023-02-01T11:12:09;18.15;;;8.85;;
55290;SDS011;41155;39.768;2.712;2023-02-01T11:14:49;24.40;;;12.75;;
55290;SDS011;41155;39.768;2.712;2023-02-01T11:19:45;20.80;;;10.55;;
55290;SDS011;41155;39.768;2.712;2023-02-01T11:22:12;13.43;;;7.45;;
55290;SDS011;41155;39.768;2.712;2023-02-01T11:24:39;21.55;;;7.65;;
55290;SDS011;41155;39.768;2.712;2023-02-01T11:27:14;9.93;;;6.85;;
55290;SDS011;41155;39.768;2.712;2023-02-01T11:29:43;15.50;;;7.50;;
55290;SDS011;41155;39.768;2.712;2023-02-01T11:32:12;9.88;;;7.40;;
55290;SDS011;41155;39.768;2.712;2023-02-01T11:34:47;12.95;;;7.75;;
55290;SDS011;41155;39.768;2.712;2023-02-01T11:37:33;20.17;;;9.00;;
55290;SDS011;41155;39.768;2.712;2023-02-01T11:42:59;20.35;;;8.27;;
55290;SDS011;41155;39.768;2.712;2023-02-01T11:45:32;8.40;;;6.45;;
55290;SDS011;41155;39.768;2.712;2023-02-01T11:48:09;8.27;;;5.95;;
55290;SDS011;41155;39.768;2.712;2023-02-01T11:50:43;13.60;;;6.07;;
55290;SDS011;41155;39.768;2.712;2023-02-01T11:55:52;12.07;;;6.43;;
55290;SDS011;41155;39.768;2.712;2023-02-01T12:01:47;11.00;;;5.25;;
55290;SDS011;41155;39.768;2.712;2023-02-01T12:07:19;15.10;;;6.43;;
55290;SDS011;41155;39.768;2.712;2023-02-01T12:12:28;15.32;;;7.43;;
55290;SDS011;41155;39.768;2.712;2023-02-01T12:20:43;18.15;;;6.60;;
55290;SDS011;41155;39.768;2.712;2023-02-01T12:42:01;10.00;;;6.05;;
55290;SDS011;41155;39.768;2.712;2023-02-01T12:47:26;15.88;;;6.25;;
55290;SDS011;41155;39.768;2.712;2023-02-01T12:50:02;7.50;;;4.90;;
55290;SDS011;41155;39.768;2.712;2023-02-01T12:52:44;7.40;;;4.97;;
55290;SDS011;41155;39.768;2.712;2023-02-01T12:58:13;11.23;;;9.20;;
55290;SDS011;41155;39.768;2.712;2023-02-01T13:00:52;17.02;;;12.20;;
55290;SDS011;41155;39.768;2.712;2023-02-01T13:03:34;30.42;;;14.25;;
55290;SDS011;41155;39.768;2.712;2023-02-01T13:06:29;33.10;;;21.40;;
55290;SDS011;41155;39.768;2.712;2023-02-01T13:09:05;39.55;;;26.30;;
55290;SDS011;41155;39.768;2.712;2023-02-01T13:11:44;39.60;;;29.38;;
55290;SDS011;41155;39.768;2.712;2023-02-01T13:17:05;33.00;;;21.67;;
55290;SDS011;41155;39.768;2.712;2023-02-01T13:22:12;33.90;;;18.35;;
55290;SDS011;41155;39.768;2.712;2023-02-01T13:25:02;20.98;;;16.27;;
55290;SDS011;41155;39.768;2.712;2023-02-01T13:27:36;21.02;;;16.23;;
55290;SDS011;41155;39.768;2.712;2023-02-01T13:30:04;21.67;;;15.55;;
55290;SDS011;41155;39.768;2.712;2023-02-01T13:32:45;20.05;;;13.43;;
55290;SDS011;41155;39.768;2.712;2023-02-01T13:43:38;12.25;;;9.57;;
55290;SDS011;41155;39.768;2.712;2023-02-01T13:46:07;21.95;;;10.43;;
55290;SDS011;41155;39.768;2.712;2023-02-01T13:51:12;16.88;;;10.25;;
55290;SDS011;41155;39.768;2.712;2023-02-01T13:53:43;18.73;;;12.25;;
55290;SDS011;41155;39.768;2.712;2023-02-01T13:56:20;18.88;;;12.02;;
55290;SDS011;41155;39.768;2.712;2023-02-01T13:58:49;23.33;;;10.07;;
55290;SDS011;41155;39.768;2.712;2023-02-01T14:16:39;17.20;;;10.07;;
55290;SDS011;41155;39.768;2.712;2023-02-01T14:19:09;13.90;;;9.60;;
55290;SDS011;41155;39.768;2.712;2023-02-01T14:21:47;14.65;;;8.65;;
55290;SDS011;41155;39.768;2.712;2023-02-01T14:24:29;11.82;;;8.65;;
55290;SDS011;41155;39.768;2.712;2023-02-01T14:26:58;10.90;;;7.80;;
55290;SDS011;41155;39.768;2.712;2023-02-01T14:29:26;14.45;;;10.15;;
55290;SDS011;41155;39.768;2.712;2023-02-01T14:44:46;24.48;;;14.75;;
55290;SDS011;41155;39.768;2.712;2023-02-01T14:50:02;13.02;;;11.60;;
55290;SDS011;41155;39.768;2.712;2023-02-01T14:52:45;17.98;;;9.25;;
55290;SDS011;41155;39.768;2.712;2023-02-01T14:55:19;20.98;;;12.13;;
55290;SDS011;41155;39.768;2.712;2023-02-01T14:57:52;25.00;;;13.77;;
55290;SDS011;41155;39.768;2.712;2023-02-01T15:00:24;18.88;;;10.32;;
55290;SDS011;41155;39.768;2.712;2023-02-01T15:02:52;25.27;;;12.32;;
55290;SDS011;41155;39.768;2.712;2023-02-01T15:05:32;13.25;;;8.95;;
55290;SDS011;41155;39.768;2.712;2023-02-01T15:08:02;18.92;;;10.55;;
55290;SDS011;41155;39.768;2.712;2023-02-01T15:10:40;13.77;;;9.27;;
55290;SDS011;41155;39.768;2.712;2023-02-01T15:13:23;14.60;;;9.50;;
55290;SDS011;41155;39.768;2.712;2023-02-01T15:16:04;16.25;;;11.27;;
55290;SDS011;41155;39.768;2.712;2023-02-01T15:18:37;13.82;;;11.60;;
55290;SDS011;41155;39.768;2.712;2023-02-01T15:21:04;18.48;;;10.75;;
55290;SDS011;41155;39.768;2.712;2023-02-01T15:23:31;15.63;;;10.32;;
55290;SDS011;41155;39.768;2.712;2023-02-01T15:25:57;22.80;;;12.38;;
55290;SDS011;41155;39.768;2.712;2023-02-01T15:28:24;20.67;;;12.07;;
55290;SDS011;41155;39.768;2.712;2023-02-01T15:30:52;21.88;;;15.23;;
55290;SDS011;41155;39.768;2.712;2023-02-01T15:33:22;20.00;;;13.48;;
55290;SDS011;41155;39.768;2.712;2023-02-01T15:35:52;33.88;;;15.15;;
55290;SDS011;41155;39.768;2.712;2023-02-01T15:43:22;17.98;;;13.57;;
55290;SDS011;41155;39.768;2.712;2023-02-01T15:45:49;22.40;;;14.07;;
55290;SDS011;41155;39.768;2.712;2023-02-01T15:48:20;16.60;;;14.50;;
55290;SDS011;41155;39.768;2.712;2023-02-01T15:50:49;20.17;;;15.52;;
55290;SDS011;41155;39.768;2.712;2023-02-01T15:53:17;16.67;;;12.88;;
55290;SDS011;41155;39.768;2.712;2023-02-01T15:55:46;22.10;;;12.82;;
55290;SDS011;41155;39.768;2.712;2023-02-01T15:58:17;20.27;;;14.52;;
55290;SDS011;41155;39.768;2.712;2023-02-01T16:00:46;20.17;;;11.80;;
55290;SDS011;41155;39.768;2.712;2023-02-01T16:06:01;16.60;;;13.13;;
55290;SDS011;41155;39.768;2.712;2023-02-01T16:08:33;19.30;;;12.27;;
55290;SDS011;41155;39.768;2.712;2023-02-01T16:11:48;17.17;;;11.02;;
55290;SDS011;41155;39.768;2.712;2023-02-01T16:13:52;20.00;;;10.80;;
55290;SDS011;41155;39.768;2.712;2023-02-01T16:16:18;21.30;;;13.98;;
55290;SDS011;41155;39.768;2.712;2023-02-01T16:18:43;16.48;;;14.32;;
55290;SDS011;41155;39.768;2.712;2023-02-01T16:21:09;48.30;;;42.72;;
55290;SDS011;41155;39.768;2.712;2023-02-01T16:23:35;47.15;;;42.30;;
55290;SDS011;41155;39.768;2.712;2023-02-01T16:26:02;34.72;;;30.13;;
55290;SDS011;41155;39.768;2.712;2023-02-01T16:28:28;35.60;;;26.92;;
55290;SDS011;41155;39.768;2.712;2023-02-01T16:30:53;37.47;;;30.45;;
55290;SDS011;41155;39.768;2.712;2023-02-01T16:33:19;103.60;;;82.30;;
55290;SDS011;41155;39.768;2.712;2023-02-01T16:35:47;64.15;;;51.33;;
55290;SDS011;41155;39.768;2.712;2023-02-01T16:38:14;28.40;;;19.45;;
55290;SDS011;41155;39.768;2.712;2023-02-01T16:40:43;20.25;;;16.55;;
55290;SDS011;41155;39.768;2.712;2023-02-01T16:43:17;36.08;;;29.05;;
55290;SDS011;41155;39.768;2.712;2023-02-01T16:45:45;32.88;;;26.30;;
55290;SDS011;41155;39.768;2.712;2023-02-01T16:50:47;30.40;;;22.83;;
55290;SDS011;41155;39.768;2.712;2023-02-01T16:53:16;78.43;;;55.15;;
55290;SDS011;41155;39.768;2.712;2023-02-01T16:55:43;46.60;;;33.63;;
55290;SDS011;41155;39.768;2.712;2023-02-01T16:58:09;45.47;;;29.25;;
55290;SDS011;41155;39.768;2.712;2023-02-01T17:00:35;23.27;;;18.35;;
55290;SDS011;41155;39.768;2.712;2023-02-01T17:03:03;15.60;;;11.80;;
55290;SDS011;41155;39.768;2.712;2023-02-01T17:05:31;17.50;;;14.50;;
55290;SDS011;41155;39.768;2.712;2023-02-01T17:07:58;29.02;;;23.55;;
55290;SDS011;41155;39.768;2.712;2023-02-01T17:10:29;56.90;;;31.88;;
55290;SDS011;41155;39.768;2.712;2023-02-01T17:12:55;56.40;;;35.33;;
55290;SDS011;41155;39.768;2.712;2023-02-01T17:15:22;103.82;;;61.13;;
55290;SDS011;41155;39.768;2.712;2023-02-01T17:17:49;117.40;;;75.70;;
55290;SDS011;41155;39.768;2.712;2023-02-01T17:20:23;99.68;;;63.47;;